sensor_id;sensor_type;location;lat;lon;timestamp;temperature;humidity
22212;DHT22;11275;52.488;13.462;2022-07-10T00:00:11;17.10;96.30
22212;DHT22;11275;52.488;13.462;2022-07-10T00:02:38;17.00;96.40
22212;DHT22;11275;52.488;13.462;2022-07-10T00:05:05;17.00;96.50
22212;DHT22;11275;52.488;13.462;2022-07-10T00:07:31;17.00;96.60
22212;DHT22;11275;52.488;13.462;2022-07-10T00:09:56;17.00;96.60
22212;DHT22;11275;52.488;13.462;2022-07-10T00:12:22;17.00;96.50
22212;DHT22;11275;52.488;13.462;2022-07-10T00:14:48;17.00;96.70
22212;DHT22;11275;52.488;13.462;2022-07-10T00:17:13;17.00;96.60
22212;DHT22;11275;52.488;13.462;2022-07-10T00:19:39;17.00;96.50
22212;DHT22;11275;52.488;13.462;2022-07-10T00:22:04;17.00;96.40
22212;DHT22;11275;52.488;13.462;2022-07-10T00:24:30;17.00;96.50
22212;DHT22;11275;52.488;13.462;2022-07-10T00:26:57;17.10;96.50
22212;DHT22;11275;52.488;13.462;2022-07-10T00:29:23;17.10;96.30
22212;DHT22;11275;52.488;13.462;2022-07-10T00:31:48;17.10;96.30
22212;DHT22;11275;52.488;13.462;2022-07-10T00:34:14;17.10;96.50
22212;DHT22;11275;52.488;13.462;2022-07-10T00:36:40;17.00;96.60
22212;DHT22;11275;52.488;13.462;2022-07-10T00:39:05;17.00;96.80
22212;DHT22;11275;52.488;13.462;2022-07-10T00:41:31;17.00;96.90
22212;DHT22;11275;52.488;13.462;2022-07-10T00:43:58;16.90;96.90
22212;DHT22;11275;52.488;13.462;2022-07-10T00:46:26;17.00;96.90
22212;DHT22;11275;52.488;13.462;2022-07-10T00:48:53;17.00;96.70
22212;DHT22;11275;52.488;13.462;2022-07-10T00:51:21;16.90;96.90
22212;DHT22;11275;52.488;13.462;2022-07-10T00:53:49;16.80;97.10
22212;DHT22;11275;52.488;13.462;2022-07-10T00:56:21;16.90;97.20
22212;DHT22;11275;52.488;13.462;2022-07-10T00:58:47;16.90;97.50
22212;DHT22;11275;52.488;13.462;2022-07-10T01:01:14;17.00;96.90
22212;DHT22;11275;52.488;13.462;2022-07-10T01:03:40;17.00;96.90
22212;DHT22;11275;52.488;13.462;2022-07-10T01:06:06;17.00;96.90
22212;DHT22;11275;52.488;13.462;2022-07-10T01:08:32;17.00;96.90
22212;DHT22;11275;52.488;13.462;2022-07-10T01:10:59;17.00;97.00
22212;DHT22;11275;52.488;13.462;2022-07-10T01:13:25;16.80;97.20
22212;DHT22;11275;52.488;13.462;2022-07-10T01:15:51;16.80;97.40
22212;DHT22;11275;52.488;13.462;2022-07-10T01:18:18;16.70;97.90
22212;DHT22;11275;52.488;13.462;2022-07-10T01:20:43;16.70;97.60
22212;DHT22;11275;52.488;13.462;2022-07-10T01:23:09;16.80;97.50
22212;DHT22;11275;52.488;13.462;2022-07-10T01:25:35;16.70;97.70
22212;DHT22;11275;52.488;13.462;2022-07-10T01:28:00;16.70;97.70
22212;DHT22;11275;52.488;13.462;2022-07-10T01:30:26;16.90;97.50
22212;DHT22;11275;52.488;13.462;2022-07-10T01:32:52;16.80;97.60
22212;DHT22;11275;52.488;13.462;2022-07-10T01:35:17;16.80;97.80
22212;DHT22;11275;52.488;13.462;2022-07-10T01:37:44;16.80;97.80
22212;DHT22;11275;52.488;13.462;2022-07-10T01:40:10;16.70;97.90
22212;DHT22;11275;52.488;13.462;2022-07-10T01:42:37;16.70;97.90
22212;DHT22;11275;52.488;13.462;2022-07-10T01:45:05;16.60;97.90
22212;DHT22;11275;52.488;13.462;2022-07-10T01:47:31;16.60;98.20
22212;DHT22;11275;52.488;13.462;2022-07-10T01:49:56;16.60;98.20
22212;DHT22;11275;52.488;13.462;2022-07-10T01:52:22;16.70;98.20
22212;DHT22;11275;52.488;13.462;2022-07-10T01:54:48;16.60;98.20
22212;DHT22;11275;52.488;13.462;2022-07-10T01:57:14;16.70;98.10
22212;DHT22;11275;52.488;13.462;2022-07-10T01:59:40;16.80;98.10
22212;DHT22;11275;52.488;13.462;2022-07-10T02:02:07;16.80;98.20
22212;DHT22;11275;52.488;13.462;2022-07-10T02:04:32;16.80;98.20
22212;DHT22;11275;52.488;13.462;2022-07-10T02:07:14;16.70;98.20
22212;DHT22;11275;52.488;13.462;2022-07-10T02:09:41;16.70;98.20
22212;DHT22;11275;52.488;13.462;2022-07-10T02:12:11;16.70;98.40
22212;DHT22;11275;52.488;13.462;2022-07-10T02:14:37;16.70;98.40
22212;DHT22;11275;52.488;13.462;2022-07-10T02:17:04;16.70;98.50
22212;DHT22;11275;52.488;13.462;2022-07-10T02:19:30;16.70;98.40
22212;DHT22;11275;52.488;13.462;2022-07-10T02:21:55;16.70;98.40
22212;DHT22;11275;52.488;13.462;2022-07-10T02:24:21;16.80;98.20
22212;DHT22;11275;52.488;13.462;2022-07-10T02:26:48;16.80;98.20
22212;DHT22;11275;52.488;13.462;2022-07-10T02:29:14;16.70;98.30
22212;DHT22;11275;52.488;13.462;2022-07-10T02:31:39;16.60;98.60
22212;DHT22;11275;52.488;13.462;2022-07-10T02:34:11;16.50;98.90
22212;DHT22;11275;52.488;13.462;2022-07-10T02:36:38;16.50;99.10
22212;DHT22;11275;52.488;13.462;2022-07-10T02:39:08;16.50;99.20
22212;DHT22;11275;52.488;13.462;2022-07-10T02:41:34;16.40;99.40
22212;DHT22;11275;52.488;13.462;2022-07-10T02:44:02;16.50;99.50
22212;DHT22;11275;52.488;13.462;2022-07-10T02:46:28;16.50;99.50
22212;DHT22;11275;52.488;13.462;2022-07-10T02:48:53;16.50;99.50
22212;DHT22;11275;52.488;13.462;2022-07-10T02:51:19;16.50;99.70
22212;DHT22;11275;52.488;13.462;2022-07-10T02:53:44;16.40;99.90
22212;DHT22;11275;52.488;13.462;2022-07-10T02:56:10;16.40;99.90
22212;DHT22;11275;52.488;13.462;2022-07-10T02:58:38;16.30;99.90
22212;DHT22;11275;52.488;13.462;2022-07-10T03:01:04;16.30;99.90
22212;DHT22;11275;52.488;13.462;2022-07-10T03:03:29;16.20;99.90
22212;DHT22;11275;52.488;13.462;2022-07-10T03:05:55;16.20;99.90
22212;DHT22;11275;52.488;13.462;2022-07-10T03:08:21;16.20;99.90
22212;DHT22;11275;52.488;13.462;2022-07-10T03:10:46;16.10;99.90
22212;DHT22;11275;52.488;13.462;2022-07-10T03:13:12;16.20;99.90
22212;DHT22;11275;52.488;13.462;2022-07-10T03:15:37;16.20;99.90
22212;DHT22;11275;52.488;13.462;2022-07-10T03:18:03;16.30;99.90
22212;DHT22;11275;52.488;13.462;2022-07-10T03:20:29;16.20;99.90
22212;DHT22;11275;52.488;13.462;2022-07-10T03:22:54;16.30;99.90
22212;DHT22;11275;52.488;13.462;2022-07-10T03:25:20;16.20;99.90
22212;DHT22;11275;52.488;13.462;2022-07-10T03:27:46;16.10;99.90
22212;DHT22;11275;52.488;13.462;2022-07-10T03:30:11;16.10;99.90
22212;DHT22;11275;52.488;13.462;2022-07-10T03:32:37;16.10;99.90
22212;DHT22;11275;52.488;13.462;2022-07-10T03:35:03;16.10;99.90
22212;DHT22;11275;52.488;13.462;2022-07-10T03:37:29;16.10;99.90
22212;DHT22;11275;52.488;13.462;2022-07-10T03:39:54;16.00;99.90
22212;DHT22;11275;52.488;13.462;2022-07-10T03:42:20;16.00;99.90
22212;DHT22;11275;52.488;13.462;2022-07-10T03:44:46;16.00;99.90
22212;DHT22;11275;52.488;13.462;2022-07-10T03:47:11;16.00;99.90
22212;DHT22;11275;52.488;13.462;2022-07-10T03:49:37;16.00;99.90
22212;DHT22;11275;52.488;13.462;2022-07-10T03:52:07;16.00;99.90
22212;DHT22;11275;52.488;13.462;2022-07-10T03:54:33;16.10;99.90
22212;DHT22;11275;52.488;13.462;2022-07-10T03:56:59;16.10;99.90
22212;DHT22;11275;52.488;13.462;2022-07-10T03:59:43;16.00;99.90
22212;DHT22;11275;52.488;13.462;2022-07-10T04:02:09;16.00;99.90
22212;DHT22;11275;52.488;13.462;2022-07-10T04:04:34;16.10;99.90
22212;DHT22;11275;52.488;13.462;2022-07-10T04:07:00;16.10;99.90
22212;DHT22;11275;52.488;13.462;2022-07-10T04:09:26;16.10;99.90
22212;DHT22;11275;52.488;13.462;2022-07-10T04:11:52;16.00;99.90
22212;DHT22;11275;52.488;13.462;2022-07-10T04:14:17;16.00;99.90
22212;DHT22;11275;52.488;13.462;2022-07-10T04:16:43;16.10;99.90
22212;DHT22;11275;52.488;13.462;2022-07-10T04:19:09;16.10;99.90
22212;DHT22;11275;52.488;13.462;2022-07-10T04:21:34;16.00;99.90
22212;DHT22;11275;52.488;13.462;2022-07-10T04:24:00;16.10;99.90
22212;DHT22;11275;52.488;13.462;2022-07-10T04:26:25;16.00;99.90
22212;DHT22;11275;52.488;13.462;2022-07-10T04:28:51;15.90;99.90
22212;DHT22;11275;52.488;13.462;2022-07-10T04:31:17;15.80;99.90
22212;DHT22;11275;52.488;13.462;2022-07-10T04:33:43;16.00;99.90
22212;DHT22;11275;52.488;13.462;2022-07-10T04:36:08;16.10;99.90
22212;DHT22;11275;52.488;13.462;2022-07-10T04:38:34;16.20;99.90
22212;DHT22;11275;52.488;13.462;2022-07-10T04:41:00;16.10;99.90
22212;DHT22;11275;52.488;13.462;2022-07-10T04:43:26;16.10;99.90
22212;DHT22;11275;52.488;13.462;2022-07-10T04:45:51;16.10;99.90
22212;DHT22;11275;52.488;13.462;2022-07-10T04:48:17;16.20;99.90
22212;DHT22;11275;52.488;13.462;2022-07-10T04:50:42;16.30;99.90
22212;DHT22;11275;52.488;13.462;2022-07-10T04:53:08;16.30;99.90
22212;DHT22;11275;52.488;13.462;2022-07-10T04:55:34;16.30;99.90
22212;DHT22;11275;52.488;13.462;2022-07-10T04:58:00;16.40;99.90
22212;DHT22;11275;52.488;13.462;2022-07-10T05:00:25;16.30;99.90
22212;DHT22;11275;52.488;13.462;2022-07-10T05:02:51;16.30;99.90
22212;DHT22;11275;52.488;13.462;2022-07-10T05:05:16;16.30;99.90
22212;DHT22;11275;52.488;13.462;2022-07-10T05:07:42;16.30;99.90
22212;DHT22;11275;52.488;13.462;2022-07-10T05:10:08;16.30;99.90
22212;DHT22;11275;52.488;13.462;2022-07-10T05:12:34;16.40;99.90
22212;DHT22;11275;52.488;13.462;2022-07-10T05:15:00;16.40;99.90
22212;DHT22;11275;52.488;13.462;2022-07-10T05:17:26;16.40;99.90
22212;DHT22;11275;52.488;13.462;2022-07-10T05:19:55;16.40;99.90
22212;DHT22;11275;52.488;13.462;2022-07-10T05:22:25;16.40;99.90
22212;DHT22;11275;52.488;13.462;2022-07-10T05:24:50;16.40;99.90
22212;DHT22;11275;52.488;13.462;2022-07-10T05:27:16;16.40;99.90
22212;DHT22;11275;52.488;13.462;2022-07-10T05:29:44;16.40;99.90
22212;DHT22;11275;52.488;13.462;2022-07-10T05:32:10;16.40;99.90
22212;DHT22;11275;52.488;13.462;2022-07-10T05:34:36;16.40;99.90
22212;DHT22;11275;52.488;13.462;2022-07-10T05:37:02;16.50;99.90
22212;DHT22;11275;52.488;13.462;2022-07-10T05:39:28;16.60;99.90
22212;DHT22;11275;52.488;13.462;2022-07-10T05:41:53;16.70;99.90
22212;DHT22;11275;52.488;13.462;2022-07-10T05:44:21;16.60;99.90
22212;DHT22;11275;52.488;13.462;2022-07-10T05:46:46;16.60;99.90
22212;DHT22;11275;52.488;13.462;2022-07-10T05:49:12;16.70;99.90
22212;DHT22;11275;52.488;13.462;2022-07-10T05:51:38;16.70;99.90
22212;DHT22;11275;52.488;13.462;2022-07-10T05:54:04;16.70;99.90
22212;DHT22;11275;52.488;13.462;2022-07-10T05:56:30;16.70;99.90
22212;DHT22;11275;52.488;13.462;2022-07-10T05:58:56;16.70;99.90
22212;DHT22;11275;52.488;13.462;2022-07-10T06:01:24;16.70;99.90
22212;DHT22;11275;52.488;13.462;2022-07-10T06:03:51;16.70;99.90
22212;DHT22;11275;52.488;13.462;2022-07-10T06:06:17;16.80;99.90
22212;DHT22;11275;52.488;13.462;2022-07-10T06:08:44;16.70;99.90
22212;DHT22;11275;52.488;13.462;2022-07-10T06:11:09;16.80;99.90
22212;DHT22;11275;52.488;13.462;2022-07-10T06:13:36;16.80;99.90
22212;DHT22;11275;52.488;13.462;2022-07-10T06:16:02;16.70;99.90
22212;DHT22;11275;52.488;13.462;2022-07-10T06:18:29;16.70;99.90
22212;DHT22;11275;52.488;13.462;2022-07-10T06:20:55;16.70;99.90
22212;DHT22;11275;52.488;13.462;2022-07-10T06:23:20;16.70;99.90
22212;DHT22;11275;52.488;13.462;2022-07-10T06:25:46;16.70;99.90
22212;DHT22;11275;52.488;13.462;2022-07-10T06:28:14;16.80;99.90
22212;DHT22;11275;52.488;13.462;2022-07-10T06:30:39;16.80;99.90
22212;DHT22;11275;52.488;13.462;2022-07-10T06:33:05;16.80;99.90
22212;DHT22;11275;52.488;13.462;2022-07-10T06:35:31;16.80;99.90
22212;DHT22;11275;52.488;13.462;2022-07-10T06:37:56;16.70;99.90
22212;DHT22;11275;52.488;13.462;2022-07-10T06:40:22;16.90;99.90
22212;DHT22;11275;52.488;13.462;2022-07-10T06:42:48;16.90;99.90
22212;DHT22;11275;52.488;13.462;2022-07-10T06:45:14;16.90;99.90
22212;DHT22;11275;52.488;13.462;2022-07-10T06:47:40;17.20;99.90
22212;DHT22;11275;52.488;13.462;2022-07-10T06:50:26;17.30;99.90
22212;DHT22;11275;52.488;13.462;2022-07-10T06:52:55;17.40;99.90
22212;DHT22;11275;52.488;13.462;2022-07-10T06:55:21;17.30;99.90
22212;DHT22;11275;52.488;13.462;2022-07-10T06:57:47;17.40;99.90
22212;DHT22;11275;52.488;13.462;2022-07-10T07:00:13;17.50;99.90
22212;DHT22;11275;52.488;13.462;2022-07-10T07:02:41;17.50;99.90
22212;DHT22;11275;52.488;13.462;2022-07-10T07:05:07;17.50;99.90
22212;DHT22;11275;52.488;13.462;2022-07-10T07:07:34;17.40;99.90
22212;DHT22;11275;52.488;13.462;2022-07-10T07:10:01;17.40;99.90
22212;DHT22;11275;52.488;13.462;2022-07-10T07:12:29;17.50;99.90
22212;DHT22;11275;52.488;13.462;2022-07-10T07:14:58;17.70;99.90
22212;DHT22;11275;52.488;13.462;2022-07-10T07:17:24;17.70;99.80
22212;DHT22;11275;52.488;13.462;2022-07-10T07:20:12;17.80;99.50
22212;DHT22;11275;52.488;13.462;2022-07-10T07:22:57;17.90;99.20
22212;DHT22;11275;52.488;13.462;2022-07-10T07:25:35;17.80;99.20
22212;DHT22;11275;52.488;13.462;2022-07-10T07:28:00;17.90;99.20
22212;DHT22;11275;52.488;13.462;2022-07-10T07:30:26;18.00;98.80
22212;DHT22;11275;52.488;13.462;2022-07-10T07:32:52;17.90;98.70
22212;DHT22;11275;52.488;13.462;2022-07-10T07:35:20;18.00;98.60
22212;DHT22;11275;52.488;13.462;2022-07-10T07:37:50;18.00;98.70
22212;DHT22;11275;52.488;13.462;2022-07-10T07:40:20;17.90;98.60
22212;DHT22;11275;52.488;13.462;2022-07-10T07:42:49;18.10;98.50
22212;DHT22;11275;52.488;13.462;2022-07-10T07:45:14;18.20;98.00
22212;DHT22;11275;52.488;13.462;2022-07-10T07:50:11;18.30;96.50
22212;DHT22;11275;52.488;13.462;2022-07-10T07:52:40;18.50;96.30
22212;DHT22;11275;52.488;13.462;2022-07-10T07:55:06;18.50;95.60
22212;DHT22;11275;52.488;13.462;2022-07-10T07:57:35;18.50;96.00
22212;DHT22;11275;52.488;13.462;2022-07-10T08:00:01;18.50;95.60
22212;DHT22;11275;52.488;13.462;2022-07-10T08:02:26;18.60;96.00
22212;DHT22;11275;52.488;13.462;2022-07-10T08:04:52;18.60;95.50
22212;DHT22;11275;52.488;13.462;2022-07-10T08:07:18;18.60;95.40
22212;DHT22;11275;52.488;13.462;2022-07-10T08:09:43;18.60;95.20
22212;DHT22;11275;52.488;13.462;2022-07-10T08:12:27;18.40;94.60
22212;DHT22;11275;52.488;13.462;2022-07-10T08:14:53;18.30;94.30
22212;DHT22;11275;52.488;13.462;2022-07-10T08:17:19;18.00;94.60
22212;DHT22;11275;52.488;13.462;2022-07-10T08:19:44;18.00;95.20
22212;DHT22;11275;52.488;13.462;2022-07-10T08:22:10;18.10;95.40
22212;DHT22;11275;52.488;13.462;2022-07-10T08:24:37;18.30;94.80
22212;DHT22;11275;52.488;13.462;2022-07-10T08:27:03;18.30;94.60
22212;DHT22;11275;52.488;13.462;2022-07-10T08:29:28;18.10;94.80
22212;DHT22;11275;52.488;13.462;2022-07-10T08:31:54;18.20;94.80
22212;DHT22;11275;52.488;13.462;2022-07-10T08:34:22;18.20;94.10
22212;DHT22;11275;52.488;13.462;2022-07-10T08:36:47;18.10;94.30
22212;DHT22;11275;52.488;13.462;2022-07-10T08:39:14;18.20;94.30
22212;DHT22;11275;52.488;13.462;2022-07-10T08:41:42;18.40;94.60
22212;DHT22;11275;52.488;13.462;2022-07-10T08:44:08;18.50;94.20
22212;DHT22;11275;52.488;13.462;2022-07-10T08:46:34;18.60;94.00
22212;DHT22;11275;52.488;13.462;2022-07-10T08:49:05;18.50;93.70
22212;DHT22;11275;52.488;13.462;2022-07-10T08:51:40;18.50;93.80
22212;DHT22;11275;52.488;13.462;2022-07-10T08:54:08;18.50;93.40
22212;DHT22;11275;52.488;13.462;2022-07-10T08:56:34;18.50;93.40
22212;DHT22;11275;52.488;13.462;2022-07-10T08:59:02;18.50;93.20
22212;DHT22;11275;52.488;13.462;2022-07-10T09:01:29;18.50;93.20
22212;DHT22;11275;52.488;13.462;2022-07-10T09:03:55;18.50;93.30
22212;DHT22;11275;52.488;13.462;2022-07-10T09:06:21;18.70;93.40
22212;DHT22;11275;52.488;13.462;2022-07-10T09:08:59;18.80;93.40
22212;DHT22;11275;52.488;13.462;2022-07-10T09:11:26;18.90;92.90
22212;DHT22;11275;52.488;13.462;2022-07-10T09:14:01;18.90;92.80
22212;DHT22;11275;52.488;13.462;2022-07-10T09:16:34;18.90;92.70
22212;DHT22;11275;52.488;13.462;2022-07-10T09:21:48;18.90;91.90
22212;DHT22;11275;52.488;13.462;2022-07-10T09:24:14;18.90;92.40
22212;DHT22;11275;52.488;13.462;2022-07-10T09:26:41;19.10;91.90
22212;DHT22;11275;52.488;13.462;2022-07-10T09:29:12;19.30;91.80
22212;DHT22;11275;52.488;13.462;2022-07-10T09:31:51;19.40;91.50
22212;DHT22;11275;52.488;13.462;2022-07-10T09:34:17;19.50;90.60
22212;DHT22;11275;52.488;13.462;2022-07-10T09:36:43;19.50;91.00
22212;DHT22;11275;52.488;13.462;2022-07-10T09:39:09;19.60;91.10
22212;DHT22;11275;52.488;13.462;2022-07-10T09:41:34;19.80;91.00
22212;DHT22;11275;52.488;13.462;2022-07-10T09:44:03;19.80;90.80
22212;DHT22;11275;52.488;13.462;2022-07-10T09:46:36;19.80;90.40
22212;DHT22;11275;52.488;13.462;2022-07-10T09:51:45;19.60;89.30
22212;DHT22;11275;52.488;13.462;2022-07-10T09:54:11;19.50;89.50
22212;DHT22;11275;52.488;13.462;2022-07-10T09:56:42;19.50;90.30
22212;DHT22;11275;52.488;13.462;2022-07-10T09:59:18;19.60;90.40
22212;DHT22;11275;52.488;13.462;2022-07-10T10:01:51;19.70;90.50
22212;DHT22;11275;52.488;13.462;2022-07-10T10:04:22;19.80;90.40
22212;DHT22;11275;52.488;13.462;2022-07-10T10:06:53;19.90;90.20
22212;DHT22;11275;52.488;13.462;2022-07-10T10:09:28;20.00;90.00
22212;DHT22;11275;52.488;13.462;2022-07-10T10:12:00;20.00;89.10
22212;DHT22;11275;52.488;13.462;2022-07-10T10:14:28;19.90;89.00
22212;DHT22;11275;52.488;13.462;2022-07-10T10:16:55;19.80;90.00
22212;DHT22;11275;52.488;13.462;2022-07-10T10:19:23;19.70;89.10
22212;DHT22;11275;52.488;13.462;2022-07-10T10:22:08;19.60;89.00
22212;DHT22;11275;52.488;13.462;2022-07-10T10:24:34;19.70;88.70
22212;DHT22;11275;52.488;13.462;2022-07-10T10:27:02;19.60;88.60
22212;DHT22;11275;52.488;13.462;2022-07-10T10:29:31;19.70;88.50
22212;DHT22;11275;52.488;13.462;2022-07-10T10:31:57;19.80;88.60
22212;DHT22;11275;52.488;13.462;2022-07-10T10:34:44;19.80;88.80
22212;DHT22;11275;52.488;13.462;2022-07-10T10:40:09;19.90;88.10
22212;DHT22;11275;52.488;13.462;2022-07-10T10:42:41;20.00;87.40
22212;DHT22;11275;52.488;13.462;2022-07-10T10:45:26;20.10;86.20
22212;DHT22;11275;52.488;13.462;2022-07-10T10:50:40;20.40;84.80
22212;DHT22;11275;52.488;13.462;2022-07-10T10:53:28;20.60;83.40
22212;DHT22;11275;52.488;13.462;2022-07-10T10:58:46;20.60;82.70
22212;DHT22;11275;52.488;13.462;2022-07-10T11:09:33;20.60;82.50
22212;DHT22;11275;52.488;13.462;2022-07-10T11:11:59;20.70;81.70
22212;DHT22;11275;52.488;13.462;2022-07-10T11:14:27;20.70;82.00
22212;DHT22;11275;52.488;13.462;2022-07-10T11:16:57;20.70;82.20
22212;DHT22;11275;52.488;13.462;2022-07-10T11:19:24;20.50;80.40
22212;DHT22;11275;52.488;13.462;2022-07-10T11:22:11;20.20;80.00
22212;DHT22;11275;52.488;13.462;2022-07-10T11:25:05;19.60;80.80
22212;DHT22;11275;52.488;13.462;2022-07-10T11:29:59;19.90;83.40
22212;DHT22;11275;52.488;13.462;2022-07-10T11:32:25;20.30;83.20
22212;DHT22;11275;52.488;13.462;2022-07-10T11:34:51;20.40;81.30
22212;DHT22;11275;52.488;13.462;2022-07-10T11:37:17;20.40;82.10
22212;DHT22;11275;52.488;13.462;2022-07-10T11:39:43;20.40;81.70
22212;DHT22;11275;52.488;13.462;2022-07-10T11:42:09;20.30;80.20
22212;DHT22;11275;52.488;13.462;2022-07-10T11:44:35;20.20;83.00
22212;DHT22;11275;52.488;13.462;2022-07-10T11:47:00;20.10;82.20
22212;DHT22;11275;52.488;13.462;2022-07-10T11:49:28;20.40;83.00
22212;DHT22;11275;52.488;13.462;2022-07-10T11:51:54;20.60;83.30
22212;DHT22;11275;52.488;13.462;2022-07-10T11:54:25;20.70;82.70
22212;DHT22;11275;52.488;13.462;2022-07-10T11:56:52;20.80;81.80
22212;DHT22;11275;52.488;13.462;2022-07-10T11:59:23;21.00;80.60
22212;DHT22;11275;52.488;13.462;2022-07-10T12:01:51;21.10;81.60
22212;DHT22;11275;52.488;13.462;2022-07-10T12:04:19;21.10;80.50
22212;DHT22;11275;52.488;13.462;2022-07-10T12:06:47;21.00;81.20
22212;DHT22;11275;52.488;13.462;2022-07-10T12:09:14;21.10;81.00
22212;DHT22;11275;52.488;13.462;2022-07-10T12:11:41;20.90;80.10
22212;DHT22;11275;52.488;13.462;2022-07-10T12:14:19;20.80;80.00
22212;DHT22;11275;52.488;13.462;2022-07-10T12:16:52;20.60;80.00
22212;DHT22;11275;52.488;13.462;2022-07-10T12:19:20;20.60;81.00
22212;DHT22;11275;52.488;13.462;2022-07-10T12:21:47;20.60;80.60
22212;DHT22;11275;52.488;13.462;2022-07-10T12:24:15;20.80;80.50
22212;DHT22;11275;52.488;13.462;2022-07-10T12:26:43;20.70;79.20
22212;DHT22;11275;52.488;13.462;2022-07-10T12:29:28;20.60;79.50
22212;DHT22;11275;52.488;13.462;2022-07-10T12:31:58;20.40;79.10
22212;DHT22;11275;52.488;13.462;2022-07-10T12:34:37;20.60;80.70
22212;DHT22;11275;52.488;13.462;2022-07-10T12:37:11;20.80;81.40
22212;DHT22;11275;52.488;13.462;2022-07-10T12:39:39;20.70;80.30
22212;DHT22;11275;52.488;13.462;2022-07-10T12:42:10;20.90;80.60
22212;DHT22;11275;52.488;13.462;2022-07-10T12:44:40;21.10;80.00
22212;DHT22;11275;52.488;13.462;2022-07-10T12:47:14;21.20;80.20
22212;DHT22;11275;52.488;13.462;2022-07-10T12:54:47;21.30;78.20
22212;DHT22;11275;52.488;13.462;2022-07-10T12:57:12;21.40;78.10
22212;DHT22;11275;52.488;13.462;2022-07-10T12:59:38;21.20;77.40
22212;DHT22;11275;52.488;13.462;2022-07-10T13:02:18;21.20;78.60
22212;DHT22;11275;52.488;13.462;2022-07-10T13:04:57;21.40;78.30
22212;DHT22;11275;52.488;13.462;2022-07-10T13:07:33;21.40;77.70
22212;DHT22;11275;52.488;13.462;2022-07-10T13:10:03;21.10;77.50
22212;DHT22;11275;52.488;13.462;2022-07-10T13:12:29;21.10;78.70
22212;DHT22;11275;52.488;13.462;2022-07-10T13:14:55;21.10;77.80
22212;DHT22;11275;52.488;13.462;2022-07-10T13:17:20;21.10;78.30
22212;DHT22;11275;52.488;13.462;2022-07-10T13:19:46;21.30;77.50
22212;DHT22;11275;52.488;13.462;2022-07-10T13:22:12;21.30;77.50
22212;DHT22;11275;52.488;13.462;2022-07-10T13:24:37;21.50;76.20
22212;DHT22;11275;52.488;13.462;2022-07-10T13:27:04;21.10;77.00
22212;DHT22;11275;52.488;13.462;2022-07-10T13:29:30;21.20;77.30
22212;DHT22;11275;52.488;13.462;2022-07-10T13:31:56;21.10;76.70
22212;DHT22;11275;52.488;13.462;2022-07-10T13:34:21;21.20;77.60
22212;DHT22;11275;52.488;13.462;2022-07-10T13:36:47;21.40;77.60
22212;DHT22;11275;52.488;13.462;2022-07-10T13:39:12;21.30;76.30
22212;DHT22;11275;52.488;13.462;2022-07-10T13:41:38;21.40;77.30
22212;DHT22;11275;52.488;13.462;2022-07-10T13:44:04;21.30;76.70
22212;DHT22;11275;52.488;13.462;2022-07-10T13:46:30;21.30;77.80
22212;DHT22;11275;52.488;13.462;2022-07-10T13:48:55;21.40;76.30
22212;DHT22;11275;52.488;13.462;2022-07-10T13:51:22;21.30;75.50
22212;DHT22;11275;52.488;13.462;2022-07-10T13:53:47;21.30;75.60
22212;DHT22;11275;52.488;13.462;2022-07-10T13:56:13;21.40;76.50
22212;DHT22;11275;52.488;13.462;2022-07-10T13:58:39;21.50;76.10
22212;DHT22;11275;52.488;13.462;2022-07-10T14:01:04;21.60;75.40
22212;DHT22;11275;52.488;13.462;2022-07-10T14:03:31;21.60;75.00
22212;DHT22;11275;52.488;13.462;2022-07-10T14:05:57;21.70;75.80
22212;DHT22;11275;52.488;13.462;2022-07-10T14:08:23;21.70;75.60
22212;DHT22;11275;52.488;13.462;2022-07-10T14:10:48;21.70;75.50
22212;DHT22;11275;52.488;13.462;2022-07-10T14:13:14;21.50;76.20
22212;DHT22;11275;52.488;13.462;2022-07-10T14:15:40;21.60;76.60
22212;DHT22;11275;52.488;13.462;2022-07-10T14:18:06;21.60;75.80
22212;DHT22;11275;52.488;13.462;2022-07-10T14:20:32;21.70;75.60
22212;DHT22;11275;52.488;13.462;2022-07-10T14:23:16;21.80;73.90
22212;DHT22;11275;52.488;13.462;2022-07-10T14:25:42;21.90;73.80
22212;DHT22;11275;52.488;13.462;2022-07-10T14:28:07;22.10;73.30
22212;DHT22;11275;52.488;13.462;2022-07-10T14:30:33;22.10;74.80
22212;DHT22;11275;52.488;13.462;2022-07-10T14:32:59;22.20;74.70
22212;DHT22;11275;52.488;13.462;2022-07-10T14:35:24;22.10;73.00
22212;DHT22;11275;52.488;13.462;2022-07-10T14:37:50;22.20;73.50
22212;DHT22;11275;52.488;13.462;2022-07-10T14:40:18;22.20;72.90
22212;DHT22;11275;52.488;13.462;2022-07-10T14:42:44;22.30;72.30
22212;DHT22;11275;52.488;13.462;2022-07-10T14:45:10;22.30;73.00
22212;DHT22;11275;52.488;13.462;2022-07-10T14:47:35;22.30;71.90
22212;DHT22;11275;52.488;13.462;2022-07-10T14:50:01;22.40;71.80
22212;DHT22;11275;52.488;13.462;2022-07-10T14:52:26;22.40;70.70
22212;DHT22;11275;52.488;13.462;2022-07-10T14:54:54;22.50;71.00
22212;DHT22;11275;52.488;13.462;2022-07-10T14:57:20;22.60;69.90
22212;DHT22;11275;52.488;13.462;2022-07-10T14:59:46;22.60;70.10
22212;DHT22;11275;52.488;13.462;2022-07-10T15:02:11;22.70;68.90
22212;DHT22;11275;52.488;13.462;2022-07-10T15:04:37;22.70;69.20
22212;DHT22;11275;52.488;13.462;2022-07-10T15:07:03;22.80;68.80
22212;DHT22;11275;52.488;13.462;2022-07-10T15:09:29;22.80;69.10
22212;DHT22;11275;52.488;13.462;2022-07-10T15:11:54;22.90;69.60
22212;DHT22;11275;52.488;13.462;2022-07-10T15:14:20;23.00;68.10
22212;DHT22;11275;52.488;13.462;2022-07-10T15:16:47;23.10;69.40
22212;DHT22;11275;52.488;13.462;2022-07-10T15:19:12;23.10;69.50
22212;DHT22;11275;52.488;13.462;2022-07-10T15:21:38;23.30;70.20
22212;DHT22;11275;52.488;13.462;2022-07-10T15:24:04;23.40;67.30
22212;DHT22;11275;52.488;13.462;2022-07-10T15:26:30;23.40;67.40
22212;DHT22;11275;52.488;13.462;2022-07-10T15:28:55;23.60;67.70
22212;DHT22;11275;52.488;13.462;2022-07-10T15:31:24;23.70;65.10
22212;DHT22;11275;52.488;13.462;2022-07-10T15:33:49;23.90;64.50
22212;DHT22;11275;52.488;13.462;2022-07-10T15:36:18;24.00;65.20
22212;DHT22;11275;52.488;13.462;2022-07-10T15:38:44;23.80;62.80
22212;DHT22;11275;52.488;13.462;2022-07-10T15:41:10;23.80;64.20
22212;DHT22;11275;52.488;13.462;2022-07-10T15:43:35;23.90;64.60
22212;DHT22;11275;52.488;13.462;2022-07-10T15:46:01;24.00;63.30
22212;DHT22;11275;52.488;13.462;2022-07-10T15:48:27;24.00;63.40